Time,TemperatureF,DewpointF,PressureIn,WindDirection,WindDirectionDegrees,WindSpeedMPH,WindSpeedGustMPH,Humidity,HourlyPrecipIn,Conditions,Clouds,dailyrainin,SoftwareType,DateUTC
2013-05-03 00:00:00,53.1,34.9,30.08,NW,321,0.0,0.0,50,0.00,,,0.00,Wunderground v.1.15,2013-05-03 07:00:00,
2013-05-03 00:05:00,52.8,34.7,30.08,NW,321,0.0,0.0,50,0.00,,,0.00,Wunderground v.1.15,2013-05-03 07:05:00,
2013-05-03 00:10:00,52.3,34.7,30.08,NW,321,0.0,0.0,51,0.00,,,0.00,Wunderground v.1.15,2013-05-03 07:10:00,
2013-05-03 00:20:00,51.9,34.8,30.08,NW,321,0.0,0.0,52,0.00,,,0.00,Wunderground v.1.15,2013-05-03 07:20:00,
2013-05-03 00:25:00,51.6,34.0,30.08,NW,321,1.0,2.0,51,0.00,,,0.00,Wunderground v.1.15,2013-05-03 07:25:00,
2013-05-03 00:30:00,51.4,34.3,30.08,NW,321,1.0,2.0,52,0.00,,,0.00,Wunderground v.1.15,2013-05-03 07:30:00,
2013-05-03 00:35:00,51.3,34.3,30.08,NW,321,1.0,2.0,52,0.00,,,0.00,Wunderground v.1.15,2013-05-03 07:35:00,
2013-05-03 00:45:00,50.8,34.3,30.08,NW,321,0.0,1.0,53,0.00,,,0.00,Wunderground v.1.15,2013-05-03 07:45:00,
2013-05-03 00:50:00,50.7,34.6,30.08,NW,321,0.0,0.0,54,0.00,,,0.00,Wunderground v.1.15,2013-05-03 07:50:00,
2013-05-03 00:55:00,50.5,34.5,30.08,NW,321,0.0,0.0,54,0.00,,,0.00,Wunderground v.1.15,2013-05-03 07:55:00,
2013-05-03 01:00:00,50.2,34.2,30.08,NW,321,0.0,0.0,54,0.00,,,0.00,Wunderground v.1.15,2013-05-03 08:00:00,
2013-05-03 01:10:00,49.8,34.3,30.08,NW,321,0.0,0.0,55,0.00,,,0.00,Wunderground v.1.15,2013-05-03 08:10:00,
2013-05-03 01:15:00,49.6,34.5,30.08,NW,321,0.0,0.0,56,0.00,,,0.00,Wunderground v.1.15,2013-05-03 08:15:00,
2013-05-03 01:20:00,49.4,34.3,30.08,NW,321,0.0,0.0,56,0.00,,,0.00,Wunderground v.1.15,2013-05-03 08:20:00,
2013-05-03 01:30:00,49.1,34.1,30.08,NW,321,0.0,0.0,56,0.00,,,0.00,Wunderground v.1.15,2013-05-03 08:30:00,
2013-05-03 01:35:00,48.9,34.8,30.08,NW,321,0.0,0.0,58,0.00,,,0.00,Wunderground v.1.15,2013-05-03 08:35:00,
2013-05-03 01:40:00,48.6,34.5,30.08,NW,321,0.0,0.0,58,0.00,,,0.00,Wunderground v.1.15,2013-05-03 08:40:00,
2013-05-03 01:45:00,48.5,34.4,30.08,NW,321,0.0,0.0,58,0.00,,,0.00,Wunderground v.1.15,2013-05-03 08:45:00,
2013-05-03 01:50:00,48.3,34.2,30.08,NW,321,0.0,0.0,58,0.00,,,0.00,Wunderground v.1.15,2013-05-03 08:50:00,
2013-05-03 02:00:00,48.0,33.9,30.08,NW,321,0.0,0.0,58,0.00,,,0.00,Wunderground v.1.15,2013-05-03 09:00:00,
2013-05-03 02:05:00,47.9,34.3,30.08,NW,321,0.0,0.0,59,0.00,,,0.00,Wunderground v.1.15,2013-05-03 09:05:00,
2013-05-03 02:10:00,47.7,34.1,30.08,NW,321,0.0,0.0,59,0.00,,,0.00,Wunderground v.1.15,2013-05-03 09:10:00,
2013-05-03 02:20:00,47.3,34.1,30.07,NW,321,0.0,0.0,60,0.00,,,0.00,Wunderground v.1.15,2013-05-03 09:20:00,
2013-05-03 02:25:00,47.1,33.9,30.07,NW,321,0.0,0.0,60,0.00,,,0.00,Wunderground v.1.15,2013-05-03 09:25:00,
2013-05-03 02:30:00,47.0,34.2,30.07,NW,321,1.0,2.0,61,0.00,,,0.00,Wunderground v.1.15,2013-05-03 09:30:00,
2013-05-03 02:40:00,46.5,33.8,30.07,NW,321,1.0,1.0,61,0.00,,,0.00,Wunderground v.1.15,2013-05-03 09:40:00,
2013-05-03 02:50:00,46.2,34.3,30.06,NW,321,1.0,1.0,63,0.00,,,0.00,Wunderground v.1.15,2013-05-03 09:50:00,
2013-05-03 02:55:00,46.1,34.6,30.06,NW,321,0.0,1.0,64,0.00,,,0.00,Wunderground v.1.15,2013-05-03 09:55:00,
2013-05-03 03:05:00,46.0,34.1,30.06,NW,321,0.0,0.0,63,0.00,,,0.00,Wunderground v.1.15,2013-05-03 10:05:00,
2013-05-03 03:10:00,45.8,33.9,30.06,NW,321,0.0,0.0,63,0.00,,,0.00,Wunderground v.1.15,2013-05-03 10:10:00,
2013-05-03 03:15:00,45.7,34.2,30.06,NW,321,0.0,0.0,64,0.00,,,0.00,Wunderground v.1.15,2013-05-03 10:15:00,
2013-05-03 03:20:00,45.5,34.0,30.06,NW,321,0.0,0.0,64,0.00,,,0.00,Wunderground v.1.15,2013-05-03 10:20:00,
2013-05-03 03:30:00,45.2,33.7,30.06,NW,321,0.0,0.0,64,0.00,,,0.00,Wunderground v.1.15,2013-05-03 10:30:00,
2013-05-03 03:35:00,45.2,33.7,30.06,NW,321,0.0,0.0,64,0.00,,,0.00,Wunderground v.1.15,2013-05-03 10:35:00,
2013-05-03 03:40:00,45.1,33.6,30.06,NW,321,0.0,0.0,64,0.00,,,0.00,Wunderground v.1.15,2013-05-03 10:40:00,
2013-05-03 03:45:00,44.9,33.8,30.05,NW,321,0.0,0.0,65,0.00,,,0.00,Wunderground v.1.15,2013-05-03 10:45:00,
2013-05-03 03:50:00,44.8,33.7,30.05,NW,321,0.0,0.0,65,0.00,,,0.00,Wunderground v.1.15,2013-05-03 10:50:00,
2013-05-03 04:00:00,44.3,33.7,30.05,NW,321,0.0,0.0,66,0.00,,,0.00,Wunderground v.1.15,2013-05-03 11:00:00,
2013-05-03 04:05:00,44.2,33.9,30.05,NW,321,0.0,0.0,67,0.00,,,0.00,Wunderground v.1.15,2013-05-03 11:05:00,
2013-05-03 04:10:00,44.1,34.2,30.05,NW,321,0.0,2.0,68,0.00,,,0.00,Wunderground v.1.15,2013-05-03 11:10:00,
2013-05-03 04:20:00,43.9,33.6,30.05,NW,321,0.0,0.0,67,0.00,,,0.00,Wunderground v.1.15,2013-05-03 11:20:00,
2013-05-03 04:30:00,43.9,34.0,30.05,NW,321,1.0,2.0,68,0.00,,,0.00,Wunderground v.1.15,2013-05-03 11:30:00,
2013-05-03 04:35:00,43.8,33.9,30.05,NW,321,2.0,2.0,68,0.00,,,0.00,Wunderground v.1.15,2013-05-03 11:35:00,
2013-05-03 04:40:00,43.6,34.1,30.05,NW,321,1.0,1.0,69,0.00,,,0.00,Wunderground v.1.15,2013-05-03 11:40:00,
2013-05-03 04:50:00,43.3,33.8,30.05,NW,321,0.0,0.0,69,0.00,,,0.00,Wunderground v.1.15,2013-05-03 11:50:00,
2013-05-03 04:55:00,43.2,33.7,30.05,NW,321,0.0,0.0,69,0.00,,,0.00,Wunderground v.1.15,2013-05-03 11:55:00,
2013-05-03 05:00:00,43.1,33.6,30.05,NW,321,0.0,0.0,69,0.00,,,0.00,Wunderground v.1.15,2013-05-03 12:00:00,
2013-05-03 05:05:00,42.9,33.4,30.05,NW,321,0.0,2.0,69,0.00,,,0.00,Wunderground v.1.15,2013-05-03 12:05:00,
2013-05-03 05:15:00,42.6,33.5,30.05,NW,321,1.0,1.0,70,0.00,,,0.00,Wunderground v.1.15,2013-05-03 12:15:00,
2013-05-03 05:20:00,42.6,33.5,30.05,NW,321,1.0,1.0,70,0.00,,,0.00,Wunderground v.1.15,2013-05-03 12:20:00,
2013-05-03 05:30:00,42.6,33.9,30.05,NW,321,0.0,0.0,71,0.00,,,0.00,Wunderground v.1.15,2013-05-03 12:30:00,
2013-05-03 05:35:00,42.5,33.8,30.05,NW,321,0.0,0.0,71,0.00,,,0.00,Wunderground v.1.15,2013-05-03 12:35:00,
2013-05-03 05:40:00,42.3,33.9,30.05,NW,321,0.0,0.0,72,0.00,,,0.00,Wunderground v.1.15,2013-05-03 12:40:00,
2013-05-03 05:50:00,42.2,34.2,30.04,NW,321,0.0,0.0,73,0.00,,,0.00,Wunderground v.1.15,2013-05-03 12:50:00,
2013-05-03 05:55:00,42.1,34.1,30.04,NW,321,0.0,0.0,73,0.00,,,0.00,Wunderground v.1.15,2013-05-03 12:55:00,
2013-05-03 06:05:00,41.9,33.5,30.04,NW,321,0.0,0.0,72,0.00,,,0.00,Wunderground v.1.15,2013-05-03 13:05:00,
2013-05-03 06:10:00,41.9,33.9,30.04,NW,321,0.0,2.0,73,0.00,,,0.00,Wunderground v.1.15,2013-05-03 13:10:00,
2013-05-03 06:20:00,41.9,33.9,30.05,NW,321,1.0,1.0,73,0.00,,,0.00,Wunderground v.1.15,2013-05-03 13:20:00,
2013-05-03 06:25:00,41.9,33.9,30.05,NW,321,0.0,1.0,73,0.00,,,0.00,Wunderground v.1.15,2013-05-03 13:25:00,
2013-05-03 06:30:00,41.8,33.8,30.05,NW,321,0.0,0.0,73,0.00,,,0.00,Wunderground v.1.15,2013-05-03 13:30:00,
2013-05-03 06:40:00,41.9,33.9,30.05,NW,321,1.0,3.0,73,0.00,,,0.00,Wunderground v.1.15,2013-05-03 13:40:00,
2013-05-03 06:45:00,42.2,34.2,30.05,NW,321,2.0,3.0,73,0.00,,,0.00,Wunderground v.1.15,2013-05-03 13:45:00,
2013-05-03 06:55:00,42.8,34.7,30.05,WNW,298,1.0,2.0,73,0.00,,,0.00,Wunderground v.1.15,2013-05-03 13:55:00,
2013-05-03 07:00:00,43.1,34.7,30.05,WNW,298,0.0,0.0,72,0.00,,,0.00,Wunderground v.1.15,2013-05-03 14:00:00,
2013-05-03 07:10:00,43.8,35.0,30.05,WNW,298,1.0,1.0,71,0.00,,,0.00,Wunderground v.1.15,2013-05-03 14:10:00,
2013-05-03 07:15:00,44.3,35.1,30.05,WNW,298,0.0,1.0,70,0.00,,,0.00,Wunderground v.1.15,2013-05-03 14:15:00,
2013-05-03 07:20:00,44.9,35.3,30.05,WNW,298,0.0,0.0,69,0.00,,,0.00,Wunderground v.1.15,2013-05-03 14:20:00,
2013-05-03 07:30:00,46.2,36.2,30.05,WNW,298,0.0,0.0,68,0.00,,,0.00,Wunderground v.1.15,2013-05-03 14:30:00,
2013-05-03 07:35:00,47.1,36.3,30.05,WNW,298,0.0,0.0,66,0.00,,,0.00,Wunderground v.1.15,2013-05-03 14:35:00,
2013-05-03 07:45:00,48.6,37.0,30.05,WNW,298,0.0,0.0,64,0.00,,,0.00,Wunderground v.1.15,2013-05-03 14:45:00,
2013-05-03 07:50:00,49.5,36.6,30.05,WNW,298,1.0,1.0,61,0.00,,,0.00,Wunderground v.1.15,2013-05-03 14:50:00,
2013-05-03 08:00:00,51.6,37.7,30.05,WNW,298,0.0,0.0,59,0.00,,,0.00,Wunderground v.1.15,2013-05-03 15:00:00,
2013-05-03 08:05:00,52.6,37.3,30.05,WNW,298,0.0,0.0,56,0.00,,,0.00,Wunderground v.1.15,2013-05-03 15:05:00,
2013-05-03 08:15:00,55.1,38.3,30.05,WNW,298,0.0,0.0,53,0.00,,,0.00,Wunderground v.1.15,2013-05-03 15:15:00,
2013-05-03 08:20:00,55.7,38.3,30.05,WNW,298,0.0,0.0,52,0.00,,,0.00,Wunderground v.1.15,2013-05-03 15:20:00,
2013-05-03 08:25:00,56.6,38.7,30.05,WNW,298,0.0,0.0,51,0.00,,,0.00,Wunderground v.1.15,2013-05-03 15:25:00,
2013-05-03 08:35:00,58.7,38.0,30.03,WNW,298,0.0,0.0,46,0.00,,,0.00,Wunderground v.1.15,2013-05-03 15:35:00,
2013-05-03 08:40:00,59.8,39.0,30.03,WNW,298,0.0,0.0,46,0.00,,,0.00,Wunderground v.1.15,2013-05-03 15:40:00,
2013-05-03 08:50:00,61.5,38.8,30.03,WNW,298,0.0,0.0,43,0.00,,,0.00,Wunderground v.1.15,2013-05-03 15:50:00,
2013-05-03 08:55:00,62.3,38.9,30.03,WNW,298,1.0,1.0,42,0.00,,,0.00,Wunderground v.1.15,2013-05-03 15:55:00,
2013-05-03 09:00:00,63.1,39.0,30.02,WNW,298,1.0,1.0,41,0.00,,,0.00,Wunderground v.1.15,2013-05-03 16:00:00,
2013-05-03 09:10:00,64.3,38.8,30.02,WNW,298,1.0,1.0,39,0.00,,,0.00,Wunderground v.1.15,2013-05-03 16:10:00,
2013-05-03 09:15:00,65.2,38.3,30.02,WNW,298,0.0,1.0,37,0.00,,,0.00,Wunderground v.1.15,2013-05-03 16:15:00,
2013-05-03 09:25:00,67.8,38.4,30.02,WNW,298,0.0,0.0,34,0.00,,,0.00,Wunderground v.1.15,2013-05-03 16:25:00,
2013-05-03 09:30:00,69.4,39.0,30.01,NE,49,0.0,0.0,33,0.00,,,0.00,Wunderground v.1.15,2013-05-03 16:30:00,
2013-05-03 09:40:00,70.9,37.9,30.01,ESE,110,0.0,1.0,30,0.00,,,0.00,Wunderground v.1.15,2013-05-03 16:40:00,
2013-05-03 09:50:00,71.5,39.3,30.00,SE,138,0.0,0.0,31,0.00,,,0.00,Wunderground v.1.15,2013-05-03 16:50:00,
2013-05-03 09:55:00,72.5,38.4,30.00,SE,138,0.0,0.0,29,0.00,,,0.00,Wunderground v.1.15,2013-05-03 16:55:00,
2013-05-03 10:05:00,73.9,39.6,29.99,ENE,58,0.0,2.0,29,0.00,,,0.00,Wunderground v.1.15,2013-05-03 17:05:00,
2013-05-03 10:25:00,76.1,39.7,29.99,ENE,58,0.0,1.0,27,0.00,,,0.00,Wunderground v.1.15,2013-05-03 17:25:00,
2013-05-03 10:35:00,78.8,38.9,29.98,East,90,0.0,2.0,24,0.00,,,0.00,Wunderground v.1.15,2013-05-03 17:35:00,
2013-05-03 10:55:00,79.9,35.2,29.98,NNE,26,1.0,1.0,20,0.00,,,0.00,Wunderground v.1.15,2013-05-03 17:55:00,
2013-05-03 11:35:00,84.1,37.4,29.96,West,276,0.0,1.0,19,0.00,,,0.00,Wunderground v.1.15,2013-05-03 18:35:00,
2013-05-03 11:45:00,84.1,36.0,29.95,West,276,2.0,2.0,18,0.00,,,0.00,Wunderground v.1.15,2013-05-03 18:45:00,
2013-05-03 11:50:00,84.3,34.7,29.95,ESE,112,2.0,2.0,17,0.00,,,0.00,Wunderground v.1.15,2013-05-03 18:50:00,
2013-05-03 12:00:00,85.5,37.1,29.94,SE,136,1.0,1.0,18,0.00,,,0.00,Wunderground v.1.15,2013-05-03 19:00:00,
2013-05-03 12:05:00,85.7,32.7,29.94,ESE,109,1.0,2.0,15,0.00,,,0.00,Wunderground v.1.15,2013-05-03 19:05:00,
2013-05-03 12:10:00,85.9,34.5,29.94,East,92,2.0,2.0,16,0.00,,,0.00,Wunderground v.1.15,2013-05-03 19:10:00,
2013-05-03 12:20:00,86.5,35.0,29.94,NW,309,2.0,2.0,16,0.00,,,0.00,Wunderground v.1.15,2013-05-03 19:20:00,
2013-05-03 12:25:00,86.7,31.8,29.94,SSW,205,2.0,3.0,14,0.00,,,0.00,Wunderground v.1.15,2013-05-03 19:25:00,
2013-05-03 12:30:00,86.3,31.5,29.93,WNW,283,2.0,7.0,14,0.00,,,0.00,Wunderground v.1.15,2013-05-03 19:30:00,
2013-05-03 12:40:00,86.7,30.0,29.93,SSW,211,4.0,6.0,13,0.00,,,0.00,Wunderground v.1.15,2013-05-03 19:40:00,
2013-05-03 12:50:00,87.6,30.7,29.92,NW,322,3.0,5.0,13,0.00,,,0.00,Wunderground v.1.15,2013-05-03 19:50:00,
2013-05-03 12:55:00,88.0,31.0,29.92,SSE,163,3.0,5.0,13,0.00,,,0.00,Wunderground v.1.15,2013-05-03 19:55:00,
2013-05-03 13:00:00,88.4,31.3,29.91,SSE,150,2.0,5.0,13,0.00,,,0.00,Wunderground v.1.15,2013-05-03 20:00:00,
2013-05-03 13:10:00,88.2,29.2,29.91,East,80,4.0,4.0,12,0.00,,,0.00,Wunderground v.1.15,2013-05-03 20:10:00,
2013-05-03 13:15:00,88.0,29.0,29.91,East,90,4.0,4.0,12,0.00,,,0.00,Wunderground v.1.15,2013-05-03 20:15:00,
2013-05-03 13:20:00,89.3,32.0,29.91,NE,53,3.0,3.0,13,0.00,,,0.00,Wunderground v.1.15,2013-05-03 20:20:00,
2013-05-03 13:30:00,89.3,30.0,29.89,SSE,148,4.0,4.0,12,0.00,,,0.00,Wunderground v.1.15,2013-05-03 20:30:00,
2013-05-03 13:35:00,90.5,28.8,29.89,West,281,2.0,4.0,11,0.00,,,0.00,Wunderground v.1.15,2013-05-03 20:35:00,
2013-05-03 13:40:00,91.0,29.2,29.89,ENE,59,2.0,4.0,11,0.00,,,0.00,Wunderground v.1.15,2013-05-03 20:40:00,
2013-05-03 13:50:00,90.5,28.8,29.89,NNE,31,2.0,2.0,11,0.00,,,0.00,Wunderground v.1.15,2013-05-03 20:50:00,
2013-05-03 13:55:00,91.2,29.3,29.89,SE,126,2.0,2.0,11,0.00,,,0.00,Wunderground v.1.15,2013-05-03 20:55:00,
2013-05-03 14:00:00,91.2,27.0,29.88,ENE,72,3.0,8.0,10,0.00,,,0.00,Wunderground v.1.15,2013-05-03 21:00:00,
2013-05-03 14:10:00,90.7,29.0,29.88,ESE,113,5.0,5.0,11,0.00,,,0.00,Wunderground v.1.15,2013-05-03 21:10:00,
2013-05-03 14:15:00,90.7,26.6,29.88,East,81,5.0,5.0,10,0.00,,,0.00,Wunderground v.1.15,2013-05-03 21:15:00,
2013-05-03 14:20:00,90.1,26.2,29.88,ENE,60,4.0,4.0,10,0.00,,,0.00,Wunderground v.1.15,2013-05-03 21:20:00,
2013-05-03 14:30:00,91.2,29.3,29.87,WSW,250,3.0,3.0,11,0.00,,,0.00,Wunderground v.1.15,2013-05-03 21:30:00,
2013-05-03 14:35:00,91.6,24.8,29.87,ESE,111,3.0,3.0,9,0.00,,,0.00,Wunderground v.1.15,2013-05-03 21:35:00,
2013-05-03 14:40:00,92.5,28.0,29.87,West,261,2.0,2.0,10,0.00,,,0.00,Wunderground v.1.15,2013-05-03 21:40:00,
2013-05-03 14:50:00,92.7,25.6,29.86,West,270,2.0,3.0,9,0.00,,,0.00,Wunderground v.1.15,2013-05-03 21:50:00,
2013-05-03 14:55:00,92.7,25.6,29.86,West,264,3.0,7.0,9,0.00,,,0.00,Wunderground v.1.15,2013-05-03 21:55:00,
2013-05-03 15:05:00,91.6,24.8,29.85,South,177,6.0,6.0,9,0.00,,,0.00,Wunderground v.1.15,2013-05-03 22:05:00,
2013-05-03 15:10:00,92.5,25.4,29.85,NW,319,6.0,6.0,9,0.00,,,0.00,Wunderground v.1.15,2013-05-03 22:10:00,
2013-05-03 15:20:00,92.3,25.3,29.84,NNW,345,6.0,6.0,9,0.00,,,0.00,Wunderground v.1.15,2013-05-03 22:20:00,
2013-05-03 15:25:00,92.1,25.1,29.84,WNW,286,6.0,12.0,9,0.00,,,0.00,Wunderground v.1.15,2013-05-03 22:25:00,
2013-05-03 15:30:00,92.1,25.1,29.84,West,270,7.0,7.0,9,0.00,,,0.00,Wunderground v.1.15,2013-05-03 22:30:00,
2013-05-03 15:40:00,92.1,25.1,29.84,WSW,246,8.0,8.0,9,0.00,,,0.00,Wunderground v.1.15,2013-05-03 22:40:00,
2013-05-03 15:45:00,92.5,25.4,29.83,West,277,7.0,8.0,9,0.00,,,0.00,Wunderground v.1.15,2013-05-03 22:45:00,
2013-05-03 15:50:00,92.5,25.4,29.83,WSW,237,6.0,6.0,9,0.00,,,0.00,Wunderground v.1.15,2013-05-03 22:50:00,
2013-05-03 16:00:00,92.3,25.3,29.83,West,263,8.0,8.0,9,0.00,,,0.00,Wunderground v.1.15,2013-05-03 23:00:00,
2013-05-03 16:05:00,92.3,25.3,29.83,West,265,7.0,8.0,9,0.00,,,0.00,Wunderground v.1.15,2013-05-03 23:05:00,
2013-05-03 16:10:00,92.7,22.8,29.83,West,277,5.0,6.0,8,0.00,,,0.00,Wunderground v.1.15,2013-05-03 23:10:00,
2013-05-03 16:20:00,92.9,22.9,29.82,SW,221,5.0,6.0,8,0.00,,,0.00,Wunderground v.1.15,2013-05-03 23:20:00,
2013-05-03 16:25:00,92.9,22.9,29.82,NW,319,6.0,6.0,8,0.00,,,0.00,Wunderground v.1.15,2013-05-03 23:25:00,
2013-05-03 16:30:00,93.2,23.1,29.82,West,259,4.0,4.0,8,0.00,,,0.00,Wunderground v.1.15,2013-05-03 23:30:00,
2013-05-03 16:40:00,93.2,20.0,29.82,WSW,254,5.0,5.0,7,0.00,,,0.00,Wunderground v.1.15,2013-05-03 23:40:00,
2013-05-03 16:45:00,93.4,23.3,29.81,WSW,242,6.0,10.0,8,0.00,,,0.00,Wunderground v.1.15,2013-05-03 23:45:00,
2013-05-03 16:50:00,92.7,25.6,29.81,SW,232,5.0,5.0,9,0.00,,,0.00,Wunderground v.1.15,2013-05-03 23:50:00,
2013-05-03 17:00:00,93.2,23.1,29.81,WNW,283,5.0,6.0,8,0.00,,,0.00,Wunderground v.1.15,2013-05-04 00:00:00,
2013-05-03 17:05:00,92.9,25.7,29.81,WNW,295,5.0,8.0,9,0.00,,,0.00,Wunderground v.1.15,2013-05-04 00:05:00,
2013-05-03 17:15:00,92.3,25.3,29.81,East,89,5.0,6.0,9,0.00,,,0.00,Wunderground v.1.15,2013-05-04 00:15:00,
2013-05-03 17:20:00,92.7,25.6,29.81,NW,313,2.0,3.0,9,0.00,,,0.00,Wunderground v.1.15,2013-05-04 00:20:00,
2013-05-03 17:30:00,92.3,22.5,29.80,ESE,103,5.0,10.0,8,0.00,,,0.00,Wunderground v.1.15,2013-05-04 00:30:00,
2013-05-03 17:35:00,92.1,25.1,29.80,East,101,6.0,10.0,9,0.00,,,0.00,Wunderground v.1.15,2013-05-04 00:35:00,
2013-05-03 17:40:00,92.1,25.1,29.80,ESE,117,7.0,7.0,9,0.00,,,0.00,Wunderground v.1.15,2013-05-04 00:40:00,
2013-05-03 17:50:00,92.5,25.4,29.80,WSW,248,3.0,5.0,9,0.00,,,0.00,Wunderground v.1.15,2013-05-04 00:50:00,
2013-05-03 17:55:00,92.5,25.4,29.80,SE,134,3.0,5.0,9,0.00,,,0.00,Wunderground v.1.15,2013-05-04 00:55:00,
2013-05-03 18:00:00,92.5,25.4,29.79,East,98,1.0,1.0,9,0.00,,,0.00,Wunderground v.1.15,2013-05-04 01:00:00,
2013-05-03 18:10:00,92.1,25.1,29.79,NE,54,2.0,2.0,9,0.00,,,0.00,Wunderground v.1.15,2013-05-04 01:10:00,
2013-05-03 18:15:00,92.1,27.7,29.78,NE,52,2.0,4.0,10,0.00,,,0.00,Wunderground v.1.15,2013-05-04 01:15:00,